createdAt,value
2018-07-04T00:01:34.762Z,99736.00
2018-07-04T00:04:21.865Z,99731.00
2018-07-04T00:07:08.883Z,99732.00
2018-07-04T00:09:55.634Z,99727.00
2018-07-04T00:12:42.540Z,99727.00
2018-07-04T00:15:29.584Z,99727.00
2018-07-04T00:18:16.428Z,99714.00
2018-07-04T00:21:03.807Z,99716.00
2018-07-04T00:23:51.015Z,99713.00
2018-07-04T00:26:37.908Z,99708.00
2018-07-04T00:29:24.848Z,99703.00
2018-07-04T00:32:12.057Z,99700.00
2018-07-04T00:34:59.160Z,99711.00
2018-07-04T00:37:46.256Z,99707.00
2018-07-04T00:40:33.284Z,99704.00
2018-07-04T00:43:21.597Z,99709.00
2018-07-04T00:46:08.869Z,99708.00
2018-07-04T00:48:56.066Z,99709.00
2018-07-04T00:51:43.310Z,99712.00
2018-07-04T00:54:30.384Z,99711.00
2018-07-04T00:57:17.196Z,99712.00
2018-07-04T01:00:04.157Z,99708.00
2018-07-04T01:02:51.093Z,99704.00
2018-07-04T01:05:38.442Z,99707.00
2018-07-04T01:08:25.404Z,99705.00
2018-07-04T01:11:12.320Z,99709.00
2018-07-04T01:13:59.109Z,99715.00
2018-07-04T01:16:46.056Z,99712.00
2018-07-04T01:19:33.053Z,99712.00
2018-07-04T01:22:19.997Z,99715.00
2018-07-04T01:25:07.162Z,99716.00
2018-07-04T01:27:54.104Z,99719.00
2018-07-04T01:30:41.012Z,99725.00
2018-07-04T01:33:27.992Z,99726.00
2018-07-04T01:36:14.956Z,99730.00
2018-07-04T01:39:01.664Z,99723.00
2018-07-04T01:41:48.496Z,99725.00
2018-07-04T01:44:35.340Z,99723.00
2018-07-04T01:47:22.396Z,99721.00
2018-07-04T01:50:09.712Z,99719.00
2018-07-04T01:52:57.092Z,99718.00
2018-07-04T01:55:44.852Z,99707.00
2018-07-04T01:58:32.080Z,99707.00
2018-07-04T02:01:19.282Z,99708.00
2018-07-04T02:04:07.108Z,99709.00
2018-07-04T02:06:54.360Z,99711.00
2018-07-04T02:09:41.472Z,99712.00
2018-07-04T02:12:28.468Z,99709.00
2018-07-04T02:15:15.380Z,99709.00
2018-07-04T02:18:02.224Z,99710.00
2018-07-04T02:20:49.136Z,99706.00
2018-07-04T02:23:36.318Z,99708.00
2018-07-04T02:26:23.289Z,99709.00
2018-07-04T02:29:10.540Z,99705.00
2018-07-04T02:31:51.635Z,99704.00
2018-07-04T02:34:38.252Z,99700.00
2018-07-04T02:37:25.212Z,99704.00
2018-07-04T02:40:12.260Z,99708.00
2018-07-04T02:42:59.802Z,99709.00
2018-07-04T02:45:46.693Z,99707.00
2018-07-04T02:48:34.008Z,99704.00
2018-07-04T02:51:21.238Z,99697.00
2018-07-04T02:54:08.521Z,99699.00
2018-07-04T02:56:55.660Z,99700.00
2018-07-04T02:59:42.696Z,99698.00
2018-07-04T03:02:29.744Z,99699.00
2018-07-04T03:05:16.999Z,99698.00
2018-07-04T03:08:04.392Z,99699.00
2018-07-04T03:10:51.488Z,99700.00
2018-07-04T03:13:38.588Z,99700.00
2018-07-04T03:16:25.605Z,99705.00
2018-07-04T03:19:12.980Z,99702.00
2018-07-04T03:21:59.872Z,99702.00
2018-07-04T03:24:47.076Z,99714.00
2018-07-04T03:27:34.321Z,99713.00
2018-07-04T03:30:21.441Z,99718.00
2018-07-04T03:33:08.837Z,99716.00
2018-07-04T03:35:56.222Z,99716.00
2018-07-04T03:38:43.280Z,99721.00
2018-07-04T03:41:30.356Z,99722.00
2018-07-04T03:44:17.849Z,99726.00
2018-07-04T03:47:05.184Z,99728.00
2018-07-04T03:49:52.562Z,99734.00
2018-07-04T03:52:39.893Z,99735.00
2018-07-04T03:55:26.973Z,99732.00
2018-07-04T03:58:14.335Z,99730.00
2018-07-04T04:01:01.541Z,99738.00
2018-07-04T04:03:42.623Z,99732.00
2018-07-04T04:06:29.670Z,99737.00
2018-07-04T04:09:16.755Z,99735.00
2018-07-04T04:12:03.841Z,99736.00
2018-07-04T04:14:50.784Z,99737.00
2018-07-04T04:17:38.325Z,99739.00
2018-07-04T04:20:25.647Z,99741.00
2018-07-04T04:23:13.088Z,99741.00
2018-07-04T04:26:00.426Z,99735.00
2018-07-04T04:28:47.810Z,99736.00
2018-07-04T04:31:35.172Z,99732.00
2018-07-04T04:34:22.439Z,99741.00
2018-07-04T04:37:09.888Z,99735.00
2018-07-04T04:39:57.217Z,99738.00
2018-07-04T04:42:44.244Z,99739.00
2018-07-04T04:45:25.215Z,99742.00
2018-07-04T04:48:12.322Z,99742.00
2018-07-04T04:50:59.402Z,99740.00
2018-07-04T04:53:46.535Z,99746.00
2018-07-04T04:56:34.077Z,99746.00
2018-07-04T04:59:21.464Z,99750.00
2018-07-04T05:02:08.869Z,99751.00
2018-07-04T05:04:56.177Z,99753.00
2018-07-04T05:07:43.468Z,99757.00
2018-07-04T05:10:30.665Z,99756.00
2018-07-04T05:13:17.699Z,99754.00
2018-07-04T05:16:04.830Z,99752.00
2018-07-04T05:18:52.066Z,99753.00
2018-07-04T05:21:39.165Z,99752.00
2018-07-04T05:24:27.281Z,99742.00
2018-07-04T05:27:14.191Z,99743.00
2018-07-04T05:30:01.429Z,99742.00
2018-07-04T05:32:48.711Z,99738.00
2018-07-04T05:35:36.003Z,99738.00
2018-07-04T05:38:23.128Z,99735.00
2018-07-04T05:41:10.296Z,99734.00
2018-07-04T05:43:57.391Z,99735.00
2018-07-04T05:46:44.632Z,99733.00
2018-07-04T05:49:31.556Z,99738.00
2018-07-04T05:52:12.546Z,99732.00
2018-07-04T05:54:59.576Z,99732.00
2018-07-04T05:57:46.711Z,99735.00
2018-07-04T06:00:33.849Z,99732.00
2018-07-04T06:03:20.772Z,99732.00
2018-07-04T06:06:08.631Z,99728.00
2018-07-04T06:08:55.874Z,99729.00
2018-07-04T06:11:43.100Z,99730.00
2018-07-04T06:14:30.231Z,99726.00
2018-07-04T06:17:17.301Z,99728.00
2018-07-04T06:20:04.704Z,99723.00
2018-07-04T06:22:52.249Z,99721.00
2018-07-04T06:25:39.398Z,99724.00
2018-07-04T06:28:26.436Z,99722.00
2018-07-04T06:31:14.066Z,99724.00
2018-07-04T06:34:01.272Z,99722.00
2018-07-04T06:36:48.631Z,99722.00
2018-07-04T06:39:17.126Z,99722.00
2018-07-04T06:41:45.724Z,99721.00
2018-07-04T06:44:14.221Z,99712.00
2018-07-04T06:46:42.752Z,99708.00
2018-07-04T06:49:11.361Z,99716.00
2018-07-04T06:51:39.994Z,99711.00
2018-07-04T06:54:08.597Z,99713.00
2018-07-04T06:56:37.101Z,99705.00
2018-07-04T06:59:05.516Z,99712.00
2018-07-04T07:01:33.964Z,99706.00
2018-07-04T07:04:21.222Z,99702.00
2018-07-04T07:07:08.666Z,99698.00
2018-07-04T07:09:55.825Z,99697.00
2018-07-04T07:12:42.930Z,99697.00
2018-07-04T07:15:30.629Z,99693.00
2018-07-04T07:18:17.525Z,99694.00
2018-07-04T07:21:04.445Z,99696.00
2018-07-04T07:23:51.378Z,99696.00
2018-07-04T07:26:38.828Z,99697.00
2018-07-04T07:29:25.976Z,99697.00
2018-07-04T07:32:13.150Z,99696.00
2018-07-04T07:35:00.553Z,99690.00
2018-07-04T07:37:47.847Z,99692.00
2018-07-04T07:40:34.616Z,99680.00
2018-07-04T07:43:21.565Z,99679.00
2018-07-04T07:46:08.906Z,99681.00
2018-07-04T07:48:56.236Z,99681.00
2018-07-04T07:51:43.534Z,99676.00
2018-07-04T07:54:30.871Z,99678.00
2018-07-04T07:57:17.964Z,99669.00
2018-07-04T08:00:05.219Z,99670.00
2018-07-04T08:02:53.379Z,99673.00
2018-07-04T08:05:40.656Z,99679.00
2018-07-04T08:08:27.872Z,99682.00
2018-07-04T08:11:15.290Z,99682.00
2018-07-04T08:14:02.525Z,99688.00
2018-07-04T08:16:49.560Z,99689.00
2018-07-04T08:19:36.655Z,99696.00
2018-07-04T08:22:24.208Z,99696.00
2018-07-04T08:25:11.492Z,99700.00
2018-07-04T08:27:58.702Z,99706.00
2018-07-04T08:30:39.804Z,99712.00
2018-07-04T08:33:26.909Z,99716.00
2018-07-04T08:36:14.059Z,99714.00
2018-07-04T08:39:01.198Z,99718.00
2018-07-04T08:41:48.431Z,99721.00
2018-07-04T08:44:35.226Z,99714.00
2018-07-04T08:47:22.493Z,99724.00
2018-07-04T08:50:09.838Z,99719.00
2018-07-04T08:52:57.125Z,99720.00
2018-07-04T08:55:38.272Z,99724.00
2018-07-04T08:58:25.026Z,99725.00
2018-07-04T09:01:11.812Z,99726.00
2018-07-04T09:03:58.697Z,99731.00
2018-07-04T09:06:45.874Z,99735.00
2018-07-04T09:09:33.028Z,99727.00
2018-07-04T09:12:20.273Z,99728.00
2018-07-04T09:15:07.892Z,99731.00
2018-07-04T09:17:54.829Z,99727.00
2018-07-04T09:20:42.135Z,99727.00
2018-07-04T09:23:29.348Z,99731.00
2018-07-04T09:26:16.730Z,99729.00
2018-07-04T09:29:04.066Z,99727.00
2018-07-04T09:31:51.112Z,99727.00
2018-07-04T09:34:38.172Z,99722.00
2018-07-04T09:37:25.065Z,99727.00
2018-07-04T09:40:11.919Z,99723.00
2018-07-04T09:42:58.756Z,99725.00
2018-07-04T09:45:45.612Z,99728.00
2018-07-04T09:48:32.961Z,99725.00
2018-07-04T09:51:20.334Z,99718.00
2018-07-04T09:54:07.767Z,99718.00
2018-07-04T09:56:48.947Z,99716.00
2018-07-04T09:59:35.897Z,99714.00
2018-07-04T10:02:23.114Z,99707.00
2018-07-04T10:05:10.223Z,99698.00
2018-07-04T10:07:57.313Z,99707.00
2018-07-04T10:10:44.576Z,99703.00
2018-07-04T10:13:31.731Z,99700.00
2018-07-04T10:16:18.903Z,99701.00
2018-07-04T10:19:06.228Z,99690.00
2018-07-04T10:21:53.456Z,99685.00
2018-07-04T10:24:40.643Z,99683.00
2018-07-04T10:27:21.563Z,99686.00
2018-07-04T10:30:08.820Z,99676.00
2018-07-04T10:32:55.946Z,99670.00
2018-07-04T10:35:42.995Z,99665.00
2018-07-04T10:38:35.636Z,99664.00
2018-07-04T10:41:16.879Z,99657.00
2018-07-04T10:44:03.750Z,99656.00
2018-07-04T10:46:51.101Z,99653.00
2018-07-04T10:49:38.661Z,99648.00
2018-07-04T10:52:25.885Z,99646.00
2018-07-04T10:55:12.893Z,99643.00
2018-07-04T10:58:00.046Z,99639.00
2018-07-04T11:00:47.172Z,99637.00
2018-07-04T11:03:34.520Z,99631.00
2018-07-04T11:06:21.485Z,99624.00
2018-07-04T11:09:08.532Z,99625.00
2018-07-04T11:11:55.476Z,99626.00
2018-07-04T11:14:42.640Z,99623.00
2018-07-04T11:17:24.008Z,99621.00
2018-07-04T11:20:11.175Z,99621.00
2018-07-04T11:22:57.949Z,99619.00
2018-07-04T11:25:44.873Z,99617.00
2018-07-04T11:28:31.987Z,99609.00
2018-07-04T11:31:18.896Z,99610.00
2018-07-04T11:34:05.876Z,99603.00
2018-07-04T11:36:52.953Z,99604.00
2018-07-04T11:39:40.288Z,99597.00
2018-07-04T11:42:27.528Z,99594.00
2018-07-04T11:45:14.868Z,99591.00
2018-07-04T11:47:43.292Z,99590.00
2018-07-04T11:50:11.776Z,99591.00
2018-07-04T11:52:40.252Z,99590.00
2018-07-04T11:55:08.840Z,99588.00
2018-07-04T11:57:37.372Z,99592.00
2018-07-04T12:00:05.809Z,99586.00
2018-07-04T12:02:34.299Z,99590.00
2018-07-04T12:05:21.631Z,99580.00
2018-07-04T12:07:50.160Z,99577.00
2018-07-04T12:10:18.556Z,99569.00
2018-07-04T12:12:47.017Z,99558.00
2018-07-04T12:15:15.542Z,99560.00
2018-07-04T12:17:43.948Z,99567.00
2018-07-04T12:20:12.534Z,99566.00
2018-07-04T12:22:41.120Z,99570.00
2018-07-04T12:25:09.835Z,99563.00
2018-07-04T12:27:38.435Z,99556.00
2018-07-04T12:30:06.923Z,99549.00
2018-07-04T12:32:35.352Z,99548.00
2018-07-04T12:35:03.808Z,99551.00
2018-07-04T12:37:32.274Z,99570.00
2018-07-04T12:40:00.694Z,99577.00
2018-07-04T12:42:29.124Z,99587.00
2018-07-04T12:44:57.599Z,99599.00
2018-07-04T12:47:26.161Z,99601.00
2018-07-04T12:49:54.608Z,99600.00
2018-07-04T12:52:23.144Z,99600.00
2018-07-04T12:55:12.496Z,99611.00
2018-07-04T12:57:59.897Z,99640.00
2018-07-04T13:00:46.779Z,99682.00
2018-07-04T13:03:33.820Z,99727.00
2018-07-04T13:06:20.920Z,99760.00
2018-07-04T13:09:08.122Z,99777.00
2018-07-04T13:11:55.439Z,99781.00
2018-07-04T13:14:42.716Z,99793.00
2018-07-04T13:17:30.136Z,99799.00
2018-07-04T13:20:16.912Z,99788.00
2018-07-04T13:23:03.904Z,99782.00
2018-07-04T13:25:50.864Z,99776.00
2018-07-04T13:28:37.858Z,99765.00
2018-07-04T13:31:24.896Z,99744.00
2018-07-04T13:34:11.978Z,99720.00
2018-07-04T13:36:58.820Z,99710.00
2018-07-04T13:39:45.780Z,99706.00
2018-07-04T13:42:33.105Z,99695.00
2018-07-04T13:45:19.964Z,99698.00
2018-07-04T13:48:07.233Z,99707.00
2018-07-04T13:50:54.140Z,99703.00
2018-07-04T13:53:41.204Z,99694.00
2018-07-04T13:56:27.896Z,99690.00
2018-07-04T13:59:14.859Z,99709.00
2018-07-04T14:02:01.656Z,99710.00
2018-07-04T14:04:48.584Z,99721.00
2018-07-04T14:07:35.536Z,99717.00
2018-07-04T14:10:22.708Z,99716.00
2018-07-04T14:13:10.241Z,99714.00
2018-07-04T14:15:57.420Z,99714.00
2018-07-04T14:18:44.616Z,99708.00
2018-07-04T14:21:31.849Z,99692.00
2018-07-04T14:24:19.192Z,99683.00
2018-07-04T14:27:06.120Z,99668.00
2018-07-04T14:29:53.079Z,99659.00
2018-07-04T14:32:40.234Z,99657.00
2018-07-04T14:35:27.036Z,99644.00
2018-07-04T14:38:14.242Z,99632.00
2018-07-04T14:41:01.369Z,99641.00
2018-07-04T14:43:48.528Z,99646.00
2018-07-04T14:46:35.773Z,99643.00
2018-07-04T14:49:23.184Z,99630.00
2018-07-04T14:52:10.247Z,99629.00
2018-07-04T14:54:57.152Z,99628.00
2018-07-04T14:57:44.144Z,99624.00
2018-07-04T15:00:31.444Z,99616.00
2018-07-04T15:03:18.750Z,99615.00
2018-07-04T15:06:05.779Z,99611.00
2018-07-04T15:08:52.456Z,99612.00
2018-07-04T15:11:39.485Z,99611.00
2018-07-04T15:14:26.648Z,99609.00
2018-07-04T15:17:13.557Z,99613.00
2018-07-04T15:20:00.727Z,99618.00
2018-07-04T15:22:47.760Z,99622.00
2018-07-04T15:25:35.014Z,99627.00
2018-07-04T15:28:22.232Z,99629.00
2018-07-04T15:31:09.609Z,99636.00
2018-07-04T15:33:56.433Z,99641.00
2018-07-04T15:36:43.459Z,99647.00
2018-07-04T15:39:30.662Z,99652.00
2018-07-04T15:42:17.924Z,99651.00
2018-07-04T15:45:05.056Z,99650.00
2018-07-04T15:47:52.284Z,99643.00
2018-07-04T15:50:39.703Z,99636.00
2018-07-04T15:53:26.945Z,99630.00
2018-07-04T15:56:14.196Z,99611.00
2018-07-04T15:59:01.402Z,99606.00
2018-07-04T16:01:48.367Z,99604.00
2018-07-04T16:04:35.312Z,99602.00
2018-07-04T16:07:22.612Z,99618.00
2018-07-04T16:10:09.750Z,99625.00
2018-07-04T16:12:57.001Z,99644.00
2018-07-04T16:15:44.115Z,99651.00
2018-07-04T16:18:31.407Z,99644.00
2018-07-04T16:21:18.572Z,99652.00
2018-07-04T16:24:05.931Z,99678.00
2018-07-04T16:26:53.160Z,99689.00
2018-07-04T16:29:40.856Z,99689.00
2018-07-04T16:32:28.165Z,99680.00
2018-07-04T16:35:15.481Z,99676.00
2018-07-04T16:38:02.514Z,99667.00
2018-07-04T16:40:50.062Z,99665.00
2018-07-04T16:43:36.863Z,99655.00
2018-07-04T16:46:23.824Z,99658.00
2018-07-04T16:49:11.120Z,99647.00
2018-07-04T16:51:58.468Z,99613.00
2018-07-04T16:54:45.327Z,99595.00
2018-07-04T16:57:32.410Z,99597.00
2018-07-04T17:00:19.788Z,99583.00
2018-07-04T17:03:06.916Z,99585.00
2018-07-04T17:05:47.875Z,99578.00
2018-07-04T17:08:34.938Z,99569.00
2018-07-04T17:11:21.752Z,99544.00
2018-07-04T17:14:02.911Z,99537.00
2018-07-04T17:16:49.995Z,99529.00
2018-07-04T17:19:37.317Z,99527.00
2018-07-04T17:22:24.805Z,99528.00
2018-07-04T17:25:12.009Z,99517.00
2018-07-04T17:27:59.398Z,99517.00
2018-07-04T17:30:46.318Z,99514.00
2018-07-04T17:33:33.609Z,99502.00
2018-07-04T17:36:20.847Z,99488.00
2018-07-04T17:39:08.703Z,99490.00
2018-07-04T17:41:55.726Z,99496.00
2018-07-04T17:44:43.124Z,99519.00
2018-07-04T17:47:30.351Z,99534.00
2018-07-04T17:50:17.445Z,99543.00
2018-07-04T17:53:04.457Z,99548.00
2018-07-04T17:55:51.875Z,99550.00
2018-07-04T17:58:39.248Z,99558.00
2018-07-04T18:01:26.516Z,99559.00
2018-07-04T18:04:13.718Z,99549.00
2018-07-04T18:07:01.036Z,99548.00
2018-07-04T18:09:48.394Z,99557.00
2018-07-04T18:12:35.628Z,99563.00
2018-07-04T18:15:22.865Z,99563.00
2018-07-04T18:18:10.432Z,99568.00
2018-07-04T18:20:59.588Z,99563.00
2018-07-04T18:23:46.492Z,99563.00
2018-07-04T18:26:33.452Z,99564.00
2018-07-04T18:29:20.888Z,99566.00
2018-07-04T18:32:08.567Z,99566.00
2018-07-04T18:34:55.779Z,99566.00
2018-07-04T18:37:43.312Z,99582.00
2018-07-04T18:40:30.589Z,99592.00
2018-07-04T18:43:17.918Z,99600.00
2018-07-04T18:46:05.004Z,99607.00
2018-07-04T18:48:52.188Z,99598.00
2018-07-04T18:51:39.390Z,99603.00
2018-07-04T18:54:26.408Z,99618.00
2018-07-04T18:57:13.765Z,99628.00
2018-07-04T19:00:00.891Z,99632.00
2018-07-04T19:02:47.921Z,99646.00
2018-07-04T19:05:34.997Z,99655.00
2018-07-04T19:08:22.237Z,99658.00
2018-07-04T19:11:09.500Z,99660.00
2018-07-04T19:13:56.700Z,99661.00
2018-07-04T19:16:44.000Z,99663.00
2018-07-04T19:19:31.340Z,99657.00
2018-07-04T19:22:19.035Z,99658.00
2018-07-04T19:25:06.010Z,99650.00
2018-07-04T19:27:53.085Z,99649.00
2018-07-04T19:30:40.603Z,99648.00
2018-07-04T19:33:27.864Z,99651.00
2018-07-04T19:36:15.057Z,99645.00
2018-07-04T19:39:02.196Z,99635.00
2018-07-04T19:41:49.224Z,99639.00
2018-07-04T19:44:36.508Z,99633.00
2018-07-04T19:47:23.902Z,99626.00
2018-07-04T19:50:11.050Z,99628.00
2018-07-04T19:52:52.025Z,99629.00
2018-07-04T19:55:33.010Z,99628.00
2018-07-04T19:58:20.167Z,99629.00
2018-07-04T20:01:07.899Z,99620.00
2018-07-04T20:03:55.135Z,99623.00
2018-07-04T20:06:42.429Z,99627.00
2018-07-04T20:09:29.721Z,99626.00
2018-07-04T20:12:16.837Z,99617.00
2018-07-04T20:15:03.968Z,99616.00
2018-07-04T20:17:51.413Z,99622.00
2018-07-04T20:20:38.751Z,99618.00
2018-07-04T20:23:25.884Z,99617.00
2018-07-04T20:26:07.292Z,99619.00
2018-07-04T20:28:54.548Z,99628.00
2018-07-04T20:31:41.859Z,99630.00
2018-07-04T20:34:29.090Z,99632.00
2018-07-04T20:37:15.955Z,99632.00
2018-07-04T20:40:03.179Z,99619.00
2018-07-04T20:42:50.412Z,99630.00
2018-07-04T20:45:37.788Z,99629.00
2018-07-04T20:48:25.371Z,99631.00
2018-07-04T20:51:12.487Z,99641.00
2018-07-04T20:53:59.203Z,99634.00
2018-07-04T20:56:45.988Z,99627.00
2018-07-04T20:59:33.175Z,99620.00
2018-07-04T21:02:20.262Z,99612.00
2018-07-04T21:05:07.760Z,99616.00
2018-07-04T21:07:55.003Z,99626.00
2018-07-04T21:10:42.199Z,99631.00
2018-07-04T21:13:29.232Z,99631.00
2018-07-04T21:16:16.322Z,99630.00
2018-07-04T21:19:03.452Z,99630.00
2018-07-04T21:21:50.569Z,99632.00
2018-07-04T21:24:37.745Z,99632.00
2018-07-04T21:27:25.068Z,99636.00
2018-07-04T21:30:12.340Z,99642.00
2018-07-04T21:32:59.260Z,99646.00
2018-07-04T21:35:46.204Z,99644.00
2018-07-04T21:38:33.431Z,99645.00
2018-07-04T21:41:20.377Z,99639.00
2018-07-04T21:44:07.357Z,99636.00
2018-07-04T21:46:54.695Z,99638.00
2018-07-04T21:49:42.046Z,99640.00
2018-07-04T21:52:28.972Z,99642.00
2018-07-04T21:55:16.012Z,99640.00
2018-07-04T21:58:03.050Z,99643.00
2018-07-04T22:00:49.964Z,99643.00
2018-07-04T22:03:36.882Z,99646.00
2018-07-04T22:06:23.660Z,99647.00
2018-07-04T22:09:10.398Z,99656.00
2018-07-04T22:11:57.244Z,99666.00
2018-07-04T22:14:44.240Z,99661.00
2018-07-04T22:17:31.211Z,99656.00
2018-07-04T22:20:18.191Z,99650.00
2018-07-04T22:23:05.432Z,99641.00
2018-07-04T22:25:52.371Z,99637.00
2018-07-04T22:28:39.580Z,99632.00
2018-07-04T22:31:26.803Z,99623.00
2018-07-04T22:34:13.976Z,99621.00
2018-07-04T22:37:01.192Z,99621.00
2018-07-04T22:39:48.439Z,99619.00
2018-07-04T22:42:35.589Z,99613.00
2018-07-04T22:45:22.717Z,99612.00
2018-07-04T22:48:09.936Z,99612.00
2018-07-04T22:50:57.184Z,99606.00
2018-07-04T22:53:44.312Z,99597.00
2018-07-04T22:56:31.272Z,99604.00
2018-07-04T22:59:18.060Z,99611.00
2018-07-04T23:02:05.026Z,99608.00
2018-07-04T23:04:51.929Z,99601.00
2018-07-04T23:07:39.111Z,99600.00
2018-07-04T23:10:26.216Z,99590.00
2018-07-04T23:13:13.480Z,99585.00
2018-07-04T23:16:00.614Z,99581.00
2018-07-04T23:18:48.203Z,99586.00
2018-07-04T23:21:35.356Z,99601.00
2018-07-04T23:24:22.419Z,99609.00
2018-07-04T23:27:09.276Z,99605.00
2018-07-04T23:29:56.240Z,99602.00
2018-07-04T23:32:43.437Z,99608.00
2018-07-04T23:35:30.551Z,99606.00
2018-07-04T23:38:17.453Z,99605.00
2018-07-04T23:41:04.281Z,99588.00
2018-07-04T23:43:51.076Z,99597.00
2018-07-04T23:46:37.824Z,99603.00
2018-07-04T23:49:24.988Z,99600.00
2018-07-04T23:52:12.164Z,99604.00
2018-07-04T23:54:59.380Z,99600.00
2018-07-04T23:57:46.724Z,99598.00
